createdAt,value
2022-10-03T00:02:08.942Z,80.70
2022-10-03T00:07:30.579Z,81.20
2022-10-03T00:12:45.869Z,81.00
2022-10-03T00:17:57.724Z,81.40
2022-10-03T00:23:07.812Z,81.30
2022-10-03T00:28:24.828Z,81.10
2022-10-03T00:33:37.223Z,81.00
2022-10-03T00:39:02.909Z,80.40
2022-10-03T00:45:02.294Z,80.50
2022-10-03T00:50:43.202Z,80.80
2022-10-03T00:55:59.827Z,80.40
2022-10-03T01:01:21.933Z,80.00
2022-10-03T01:06:37.762Z,79.90
2022-10-03T01:12:03.981Z,80.20
2022-10-03T01:17:14.351Z,80.60
2022-10-03T01:22:39.824Z,80.40
2022-10-03T01:27:49.326Z,81.30
2022-10-03T01:33:02.445Z,81.40
2022-10-03T01:38:16.191Z,81.70
2022-10-03T01:43:21.178Z,81.70
2022-10-03T01:48:35.762Z,81.50
2022-10-03T01:53:56.838Z,81.80
2022-10-03T01:59:06.707Z,81.80
2022-10-03T02:04:20.851Z,81.50
2022-10-03T02:09:34.273Z,81.50
2022-10-03T02:14:49.865Z,81.80
2022-10-03T02:20:03.381Z,81.70
2022-10-03T02:25:49.618Z,81.60
2022-10-03T02:31:20.341Z,82.00
2022-10-03T02:37:00.044Z,81.30
2022-10-03T02:42:37.435Z,81.30
2022-10-03T02:48:27.479Z,81.40
2022-10-03T02:54:11.504Z,81.20
2022-10-03T02:59:45.245Z,81.20
2022-10-03T03:05:18.271Z,81.50
2022-10-03T03:10:38.578Z,81.60
2022-10-03T03:16:17.349Z,81.30
2022-10-03T03:21:30.149Z,81.90
2022-10-03T03:26:56.215Z,81.70
2022-10-03T03:32:08.519Z,82.50
2022-10-03T03:37:18.896Z,82.60
2022-10-03T03:42:55.066Z,82.60
2022-10-03T03:48:27.109Z,83.40
2022-10-03T03:54:14.405Z,83.30
2022-10-03T03:59:34.606Z,83.80
2022-10-03T04:04:48.192Z,83.00
2022-10-03T04:10:25.738Z,82.60
2022-10-03T04:16:01.985Z,82.60
2022-10-03T04:21:22.403Z,82.90
2022-10-03T04:26:46.268Z,82.60
2022-10-03T04:31:56.150Z,82.80
2022-10-03T04:37:18.290Z,82.40
2022-10-03T04:42:41.578Z,82.60
2022-10-03T04:47:52.730Z,82.70
2022-10-03T04:53:10.594Z,82.40
2022-10-03T04:58:24.253Z,82.30
2022-10-03T05:03:40.665Z,83.20
2022-10-03T05:08:50.363Z,82.80
2022-10-03T05:14:09.111Z,83.00
2022-10-03T05:19:43.148Z,83.80
2022-10-03T05:24:54.051Z,84.40
2022-10-03T05:30:03.729Z,83.80
2022-10-03T05:35:29.214Z,84.20
2022-10-03T05:40:35.034Z,85.00
2022-10-03T05:45:49.713Z,84.10
2022-10-03T05:51:27.543Z,84.50
2022-10-03T05:56:57.203Z,84.60
2022-10-03T06:02:42.881Z,84.40
2022-10-03T06:08:06.341Z,84.70
2022-10-03T06:13:19.362Z,84.40
2022-10-03T06:18:54.348Z,84.40
2022-10-03T06:24:24.823Z,84.80
2022-10-03T06:30:04.388Z,84.60
2022-10-03T06:35:41.109Z,84.50
2022-10-03T06:41:20.890Z,84.50
2022-10-03T06:46:56.601Z,86.00
2022-10-03T06:52:27.402Z,85.50
2022-10-03T06:58:14.059Z,83.80
2022-10-03T07:03:41.943Z,81.00
2022-10-03T07:09:20.264Z,81.10
2022-10-03T07:14:50.472Z,80.20
2022-10-03T07:20:23.292Z,78.50
2022-10-03T07:26:05.476Z,76.70
2022-10-03T07:31:21.604Z,73.50
2022-10-03T07:36:32.360Z,72.50
2022-10-03T07:42:05.280Z,70.70
2022-10-03T07:47:37.612Z,67.10
2022-10-03T07:52:56.731Z,66.60
2022-10-03T07:58:41.880Z,66.30
2022-10-03T08:04:26.174Z,63.00
2022-10-03T08:10:01.959Z,63.50
2022-10-03T08:15:11.204Z,61.80
2022-10-03T08:20:47.273Z,61.40
2022-10-03T08:26:06.169Z,59.90
2022-10-03T08:31:57.758Z,61.10
2022-10-03T08:37:26.933Z,62.50
2022-10-03T08:43:05.226Z,62.80
2022-10-03T08:48:43.787Z,61.70
2022-10-03T08:54:05.872Z,59.70
2022-10-03T08:59:32.004Z,58.90
2022-10-03T09:05:09.704Z,57.60
2022-10-03T09:10:58.683Z,56.80
2022-10-03T09:16:58.039Z,55.90
2022-10-03T09:22:28.332Z,54.30
2022-10-03T09:27:46.496Z,54.20
2022-10-03T09:33:25.878Z,53.10
2022-10-03T09:39:04.289Z,51.80
2022-10-03T09:44:34.453Z,52.30
2022-10-03T09:50:05.176Z,52.20
2022-10-03T09:55:35.534Z,51.70
2022-10-03T10:01:13.919Z,51.00
2022-10-03T10:06:35.456Z,50.20
2022-10-03T10:12:12.938Z,50.30
2022-10-03T10:17:45.581Z,49.80
2022-10-03T10:23:36.875Z,49.60
2022-10-03T10:29:14.742Z,49.70
2022-10-03T10:34:47.615Z,50.30
2022-10-03T10:40:29.649Z,51.50
2022-10-03T10:45:57.359Z,51.60
2022-10-03T10:51:53.770Z,50.80
2022-10-03T10:57:26.486Z,49.90
2022-10-03T11:03:00.740Z,49.50
2022-10-03T11:08:45.502Z,50.40
2022-10-03T11:14:27.114Z,51.60
2022-10-03T11:20:04.437Z,51.60
2022-10-03T11:25:51.774Z,50.70
2022-10-03T11:31:27.316Z,50.80
2022-10-03T11:37:03.478Z,51.50
2022-10-03T11:42:18.849Z,51.00
2022-10-03T11:47:43.940Z,51.90
2022-10-03T11:53:02.484Z,51.30
2022-10-03T11:58:21.645Z,52.00
2022-10-03T12:03:28.727Z,51.40
2022-10-03T12:08:34.506Z,50.70
2022-10-03T12:13:46.543Z,49.50
2022-10-03T12:18:58.764Z,47.80
2022-10-03T12:24:13.730Z,47.60
2022-10-03T12:29:19.972Z,48.30
2022-10-03T12:34:40.592Z,50.00
2022-10-03T12:39:54.107Z,50.40
2022-10-03T12:45:05.239Z,50.70
2022-10-03T12:50:22.303Z,50.40
2022-10-03T12:55:30.439Z,50.00
2022-10-03T13:00:45.211Z,50.30
2022-10-03T13:06:26.684Z,50.60
2022-10-03T13:11:53.548Z,50.80
2022-10-03T13:17:10.063Z,51.70
2022-10-03T13:22:35.000Z,52.00
2022-10-03T13:27:44.763Z,52.30
2022-10-03T13:32:52.434Z,52.30
2022-10-03T13:38:36.969Z,52.40
2022-10-03T13:43:45.013Z,52.40
2022-10-03T13:49:01.799Z,52.50
2022-10-03T13:54:11.746Z,52.60
2022-10-03T13:59:32.050Z,52.70
2022-10-03T14:04:51.913Z,52.40
2022-10-03T14:10:34.079Z,52.40
2022-10-03T14:15:48.432Z,52.40
2022-10-03T14:21:40.854Z,52.70
2022-10-03T14:26:50.300Z,52.80
2022-10-03T14:32:00.409Z,52.90
2022-10-03T14:37:16.819Z,52.80
2022-10-03T14:42:45.593Z,53.00
2022-10-03T14:47:53.099Z,53.30
2022-10-03T14:53:01.685Z,53.80
2022-10-03T14:58:11.518Z,54.60
2022-10-03T15:03:23.971Z,55.30
2022-10-03T15:08:34.784Z,55.80
2022-10-03T15:13:45.855Z,55.60
2022-10-03T15:18:54.402Z,55.70
2022-10-03T15:24:02.882Z,55.90
2022-10-03T15:29:07.698Z,56.10
2022-10-03T15:34:18.531Z,56.20
2022-10-03T15:39:28.554Z,56.50
2022-10-03T15:44:33.335Z,56.60
2022-10-03T15:49:39.865Z,56.60
2022-10-03T15:54:49.256Z,57.00
2022-10-03T15:59:58.231Z,57.40
2022-10-03T16:05:14.746Z,57.60
2022-10-03T16:10:22.901Z,58.00
2022-10-03T16:15:31.920Z,58.40
2022-10-03T16:20:38.485Z,58.50
2022-10-03T16:25:48.058Z,58.70
2022-10-03T16:30:57.274Z,58.90
2022-10-03T16:36:02.808Z,59.30
2022-10-03T16:41:25.720Z,59.40
2022-10-03T16:46:33.452Z,59.80
2022-10-03T16:51:40.449Z,60.40
2022-10-03T16:56:45.928Z,60.60
2022-10-03T17:01:58.784Z,60.10
2022-10-03T17:07:05.167Z,60.90
2022-10-03T17:12:16.093Z,61.30
2022-10-03T17:17:28.458Z,62.10
2022-10-03T17:22:37.694Z,63.30
2022-10-03T17:27:43.292Z,62.60
2022-10-03T17:33:02.095Z,62.80
2022-10-03T17:44:06.414Z,64.30
2022-10-03T17:49:25.484Z,64.30
2022-10-03T17:54:32.421Z,64.80
2022-10-03T17:59:45.366Z,64.20
2022-10-03T18:04:57.254Z,65.10
2022-10-03T18:10:01.363Z,64.80
2022-10-03T18:15:36.661Z,64.80
2022-10-03T18:20:50.406Z,66.10
2022-10-03T18:26:18.566Z,65.70
2022-10-03T18:31:24.234Z,65.50
2022-10-03T18:36:36.099Z,65.40
2022-10-03T18:41:45.581Z,66.00
2022-10-03T18:46:54.751Z,66.70
2022-10-03T18:52:07.452Z,66.70
2022-10-03T18:57:17.774Z,67.30
2022-10-03T19:02:28.524Z,67.40
2022-10-03T19:07:38.779Z,67.60
2022-10-03T19:12:47.419Z,68.00
2022-10-03T19:17:59.307Z,67.80
2022-10-03T19:23:13.906Z,68.20
2022-10-03T19:28:20.392Z,69.00
2022-10-03T19:33:43.016Z,68.80
2022-10-03T19:38:48.583Z,70.00
2022-10-03T19:43:53.979Z,69.30
2022-10-03T19:49:39.870Z,69.20
2022-10-03T19:54:52.431Z,70.70
2022-10-03T20:00:08.013Z,70.00
2022-10-03T20:05:19.837Z,69.80
2022-10-03T20:10:42.159Z,70.60
2022-10-03T20:15:47.624Z,70.70
2022-10-03T20:20:53.504Z,70.20
2022-10-03T20:26:03.944Z,70.40
2022-10-03T20:31:08.902Z,71.00
2022-10-03T20:36:19.659Z,70.70
2022-10-03T20:41:33.138Z,71.10
2022-10-03T20:46:37.868Z,71.20
2022-10-03T20:51:44.814Z,70.70
2022-10-03T20:56:57.749Z,71.00
2022-10-03T21:02:09.053Z,71.40
2022-10-03T21:07:35.274Z,71.30
2022-10-03T21:12:45.423Z,71.70
2022-10-03T21:17:49.838Z,71.40
2022-10-03T21:22:58.593Z,71.30
2022-10-03T21:28:04.580Z,71.50
2022-10-03T21:33:12.366Z,72.80
2022-10-03T21:38:23.825Z,72.20
2022-10-03T21:43:42.103Z,72.40
2022-10-03T21:48:58.540Z,72.80
2022-10-03T21:54:24.121Z,72.70
2022-10-03T21:59:54.118Z,73.40
2022-10-03T22:05:02.317Z,73.30
2022-10-03T22:10:19.096Z,72.80
2022-10-03T22:15:35.025Z,72.80
2022-10-03T22:20:47.979Z,73.30
2022-10-03T22:26:08.896Z,73.10
2022-10-03T22:31:22.108Z,75.10
2022-10-03T22:36:24.925Z,73.90
2022-10-03T22:41:30.824Z,73.50
2022-10-03T22:46:36.929Z,73.90
2022-10-03T22:51:41.293Z,74.20
2022-10-03T22:56:48.203Z,74.30
2022-10-03T23:01:55.258Z,74.60
2022-10-03T23:07:19.285Z,74.70
2022-10-03T23:12:26.058Z,75.80
2022-10-03T23:17:46.775Z,74.70
2022-10-03T23:22:55.587Z,75.60
2022-10-03T23:28:13.396Z,75.40
2022-10-03T23:33:39.754Z,76.20
2022-10-03T23:38:59.806Z,75.50
2022-10-03T23:44:02.405Z,76.10
2022-10-03T23:49:06.446Z,75.20
2022-10-03T23:54:13.136Z,75.40
2022-10-03T23:59:23.492Z,75.60
